Time;durP1;ratioP1;P1;durP2;ratioP2;P2;SDS_P1;SDS_P2;PMS_P1;PMS_P2;Temp;Humidity;BMP_temperature;BMP_pressure;BME280_temperature;BME280_humidity;BME280_pressure;Samples;Min_cycle;Max_cycle;Signal;HPM_P1;HPM_P2
2021/09/02 00:01:47;;;;;;;7.55;3.72;;;;;;;;;;5055055;28;20040;-85
2021/09/02 00:04:13;;;;;;;7.60;3.35;;;;;;;;;;5058704;28;20124;-85
2021/09/02 00:06:40;;;;;;;5.78;3.30;;;;;;;;;;5058617;28;20060;-87
2021/09/02 00:09:06;;;;;;;11.45;3.60;;;;;;;;;;5058321;28;20083;-89
2021/09/02 00:11:33;;;;;;;8.88;3.42;;;;;;;;;;5058870;28;20517;-88
2021/09/02 00:13:59;;;;;;;11.48;3.20;;;;;;;;;;5061494;28;20056;-87
2021/09/02 00:16:25;;;;;;;7.55;3.42;;;;;;;;;;5070056;28;20041;-88
2021/09/02 00:18:52;;;;;;;9.43;3.63;;;;;;;;;;5058901;28;20094;-88
2021/09/02 00:21:18;;;;;;;7.05;3.08;;;;;;;;;;5058623;28;20081;-86
2021/09/02 00:23:45;;;;;;;7.20;3.45;;;;;;;;;;5058778;28;20041;-88
2021/09/02 00:26:11;;;;;;;7.32;3.35;;;;;;;;;;5055923;28;20501;-88
2021/09/02 00:28:37;;;;;;;15.80;3.83;;;;;;;;;;5070630;28;20132;-86
2021/09/02 00:31:04;;;;;;;8.43;3.20;;;;;;;;;;5058468;28;20561;-86
2021/09/02 00:33:30;;;;;;;8.57;3.20;;;;;;;;;;5058475;28;20044;-86
2021/09/02 00:35:57;;;;;;;9.90;4.32;;;;;;;;;;5058336;28;20057;-87
2021/09/02 00:38:23;;;;;;;8.90;3.75;;;;;;;;;;5058846;28;20056;-88
2021/09/02 00:40:49;;;;;;;8.73;3.67;;;;;;;;;;5054238;28;20044;-88
2021/09/02 00:43:16;;;;;;;7.22;2.90;;;;;;;;;;5057376;28;20080;-69
2021/09/02 00:45:42;;;;;;;7.18;3.22;;;;;;;;;;5067313;28;20127;-85
2021/09/02 00:48:09;;;;;;;9.07;3.60;;;;;;;;;;5062772;28;20066;-87
2021/09/02 00:50:35;;;;;;;6.85;3.13;;;;;;;;;;5058034;28;20478;-80
2021/09/02 00:53:02;;;;;;;8.65;3.40;;;;;;;;;;5056193;28;20049;-88
2021/09/02 00:55:29;;;;;;;11.00;2.95;;;;;;;;;;5055673;28;20052;-86
2021/09/02 00:57:55;;;;;;;11.80;4.20;;;;;;;;;;5056631;28;20147;-87
2021/09/02 01:00:22;;;;;;;8.88;3.25;;;;;;;;;;5057968;28;20066;-82
2021/09/02 01:02:48;;;;;;;8.27;3.65;;;;;;;;;;5057979;28;20098;-88
2021/09/02 01:05:16;;;;;;;8.93;3.88;;;;;;;;;;5054867;28;20120;-84
2021/09/02 01:07:43;;;;;;;16.50;3.45;;;;;;;;;;5069928;28;20052;-86
2021/09/02 01:10:10;;;;;;;10.45;3.55;;;;;;;;;;5057350;28;20040;-79
2021/09/02 01:12:38;;;;;;;8.70;3.85;;;;;;;;;;5057694;28;20132;-86
2021/09/02 01:15:06;;;;;;;6.03;2.85;;;;;;;;;;5057951;28;20044;-78
2021/09/02 01:17:32;;;;;;;7.38;2.72;;;;;;;;;;5057719;28;20080;-86
2021/09/02 01:19:59;;;;;;;12.40;4.53;;;;;;;;;;5054630;28;20068;-86
2021/09/02 01:22:29;;;;;;;8.75;3.50;;;;;;;;;;5055366;28;20514;-87
2021/09/02 01:25:05;;;;;;;15.30;3.45;;;;;;;;;;5057338;28;20049;-88
2021/09/02 01:27:32;;;;;;;10.23;3.67;;;;;;;;;;5057437;28;20522;-87
2021/09/02 01:29:59;;;;;;;12.48;4.30;;;;;;;;;;5054285;28;20104;-88
2021/09/02 01:32:27;;;;;;;9.13;3.42;;;;;;;;;;5055799;28;20434;-87
2021/09/02 01:34:57;;;;;;;15.27;4.05;;;;;;;;;;5068840;28;20519;-87
2021/09/02 01:37:24;;;;;;;8.20;3.45;;;;;;;;;;5055127;28;20119;-88
2021/09/02 01:39:50;;;;;;;10.13;3.78;;;;;;;;;;5067396;28;20083;-71
2021/09/02 01:42:17;;;;;;;15.18;4.20;;;;;;;;;;5060703;28;20069;-87
2021/09/02 01:44:43;;;;;;;11.85;4.13;;;;;;;;;;5057871;28;20045;-77
2021/09/02 01:47:19;;;;;;;13.13;3.72;;;;;;;;;;5068816;28;20078;-87
2021/09/02 01:49:46;;;;;;;8.40;4.05;;;;;;;;;;5053030;28;20399;-87
2021/09/02 01:52:12;;;;;;;10.55;3.70;;;;;;;;;;5068352;28;20048;-86
2021/09/02 01:54:39;;;;;;;9.73;4.22;;;;;;;;;;5057733;28;20049;-86
2021/09/02 01:57:06;;;;;;;8.95;3.50;;;;;;;;;;5054884;28;20075;-87
2021/09/02 01:59:32;;;;;;;12.68;3.97;;;;;;;;;;5056989;28;20502;-88
2021/09/02 02:01:58;;;;;;;8.15;3.40;;;;;;;;;;5054249;28;20406;-87
2021/09/02 02:04:25;;;;;;;10.35;4.05;;;;;;;;;;5054645;28;20077;-86
2021/09/02 02:06:51;;;;;;;12.13;3.90;;;;;;;;;;5057431;28;20380;-88
2021/09/02 02:09:17;;;;;;;9.40;3.65;;;;;;;;;;5057034;28;20052;-85
2021/09/02 02:11:44;;;;;;;17.35;6.88;;;;;;;;;;5057448;28;20069;-85
2021/09/02 02:14:11;;;;;;;10.68;4.53;;;;;;;;;;5055939;28;20051;-81
2021/09/02 02:16:37;;;;;;;18.25;4.82;;;;;;;;;;5053389;28;20080;-88
2021/09/02 02:19:04;;;;;;;9.15;3.47;;;;;;;;;;5056567;28;20081;-88
2021/09/02 02:21:30;;;;;;;11.43;3.95;;;;;;;;;;5056820;28;20049;-73
2021/09/02 02:23:56;;;;;;;9.77;4.35;;;;;;;;;;5059442;28;20045;-87
2021/09/02 02:26:23;;;;;;;11.13;4.30;;;;;;;;;;5067858;28;20498;-87
2021/09/02 02:28:49;;;;;;;13.05;4.40;;;;;;;;;;5052697;28;20063;-88
2021/09/02 02:31:15;;;;;;;9.30;3.65;;;;;;;;;;5056383;28;20171;-84
2021/09/02 02:33:42;;;;;;;11.63;4.13;;;;;;;;;;5055578;28;20052;-86
2021/09/02 02:36:08;;;;;;;13.98;3.80;;;;;;;;;;5055106;28;20124;-88
2021/09/02 02:38:34;;;;;;;9.23;4.13;;;;;;;;;;5055205;28;20131;-77
2021/09/02 02:41:01;;;;;;;10.13;3.83;;;;;;;;;;5057047;28;20487;-87
2021/09/02 02:43:27;;;;;;;12.38;4.25;;;;;;;;;;5057920;28;20053;-83
2021/09/02 02:45:57;;;;;;;15.35;3.65;;;;;;;;;;5060449;28;20041;-73
2021/09/02 02:48:23;;;;;;;10.88;4.00;;;;;;;;;;5060492;28;20143;-87
2021/09/02 02:50:50;;;;;;;10.60;4.10;;;;;;;;;;5060704;28;20040;-87
2021/09/02 02:53:16;;;;;;;12.75;4.43;;;;;;;;;;5072008;28;20120;-86
2021/09/02 02:55:43;;;;;;;12.18;3.65;;;;;;;;;;5056502;28;20072;-83
2021/09/02 02:58:09;;;;;;;10.25;3.75;;;;;;;;;;5060017;28;20053;-86
2021/09/02 03:00:36;;;;;;;14.18;4.30;;;;;;;;;;5060156;28;20068;-85
2021/09/02 03:03:02;;;;;;;10.57;3.83;;;;;;;;;;5063421;28;20071;-83
2021/09/02 03:05:28;;;;;;;9.75;3.80;;;;;;;;;;5070657;28;20044;-83
2021/09/02 03:07:55;;;;;;;14.52;4.97;;;;;;;;;;5056999;28;20037;-82
2021/09/02 03:10:21;;;;;;;11.75;4.50;;;;;;;;;;5058225;28;20103;-81
2021/09/02 03:12:47;;;;;;;14.35;3.95;;;;;;;;;;5060629;28;20073;-86
2021/09/02 03:15:14;;;;;;;10.68;3.92;;;;;;;;;;5059500;28;20041;-81
2021/09/02 03:17:40;;;;;;;17.67;4.43;;;;;;;;;;5059483;28;20484;-86
2021/09/02 03:20:07;;;;;;;15.13;4.55;;;;;;;;;;5057959;28;20047;-82
2021/09/02 03:22:34;;;;;;;11.15;4.35;;;;;;;;;;5056552;28;20055;-80
2021/09/02 03:25:00;;;;;;;11.85;3.97;;;;;;;;;;5059161;28;20091;-84
2021/09/02 03:27:27;;;;;;;15.95;4.18;;;;;;;;;;5059079;28;20040;-84
2021/09/02 03:29:53;;;;;;;8.30;3.88;;;;;;;;;;5059330;28;20048;-85
2021/09/02 03:32:19;;;;;;;19.10;5.45;;;;;;;;;;5059458;28;20075;-85
2021/09/02 03:34:46;;;;;;;18.45;4.38;;;;;;;;;;5054670;28;20569;-85
2021/09/02 03:37:12;;;;;;;12.40;4.60;;;;;;;;;;5059240;28;20049;-82
2021/09/02 03:39:39;;;;;;;14.75;4.30;;;;;;;;;;5059715;28;20072;-85
2021/09/02 03:42:05;;;;;;;12.52;4.28;;;;;;;;;;5062935;28;20040;-83
2021/09/02 03:44:32;;;;;;;10.02;3.88;;;;;;;;;;5068031;28;20040;-83
2021/09/02 03:46:58;;;;;;;9.30;3.95;;;;;;;;;;5056512;28;20120;-85
2021/09/02 03:49:25;;;;;;;9.73;4.30;;;;;;;;;;5055788;28;20160;-84
2021/09/02 03:51:51;;;;;;;13.20;3.95;;;;;;;;;;5059863;28;20064;-85
2021/09/02 03:54:17;;;;;;;14.30;4.65;;;;;;;;;;5059516;28;20103;-85
2021/09/02 03:56:44;;;;;;;10.95;4.63;;;;;;;;;;5059325;28;20036;-85
2021/09/02 03:59:10;;;;;;;13.77;4.95;;;;;;;;;;5057749;28;20114;-85
2021/09/02 04:01:36;;;;;;;10.60;4.72;;;;;;;;;;5055902;28;20110;-83
2021/09/02 04:04:03;;;;;;;12.10;4.85;;;;;;;;;;5058912;28;20053;-79
2021/09/02 04:06:29;;;;;;;13.63;5.68;;;;;;;;;;5059039;28;20051;-83
2021/09/02 04:08:55;;;;;;;12.63;4.65;;;;;;;;;;5059403;28;20071;-86
2021/09/02 04:11:22;;;;;;;14.88;5.38;;;;;;;;;;5058135;28;20041;-85
2021/09/02 04:13:48;;;;;;;14.15;5.53;;;;;;;;;;5067705;28;20183;-84
2021/09/02 04:16:14;;;;;;;13.10;5.68;;;;;;;;;;5066418;28;20072;-81
2021/09/02 04:18:41;;;;;;;11.73;5.18;;;;;;;;;;5069723;28;20067;-84
2021/09/02 04:21:07;;;;;;;12.25;4.75;;;;;;;;;;5068707;28;20079;-85
2021/09/02 04:23:34;;;;;;;10.70;4.63;;;;;;;;;;5071408;28;20387;-83
2021/09/02 04:26:01;;;;;;;8.00;4.25;;;;;;;;;;5070116;28;20486;-85
2021/09/02 04:28:27;;;;;;;10.80;5.03;;;;;;;;;;5055977;28;20060;-84
2021/09/02 04:30:54;;;;;;;13.63;4.90;;;;;;;;;;5058558;28;20138;-82
2021/09/02 04:33:20;;;;;;;10.63;4.60;;;;;;;;;;5060382;28;20041;-82
2021/09/02 04:35:47;;;;;;;14.07;4.88;;;;;;;;;;5058643;28;20135;-79
2021/09/02 04:38:13;;;;;;;12.55;4.72;;;;;;;;;;5057515;28;20083;-84
2021/09/02 04:40:39;;;;;;;19.75;4.95;;;;;;;;;;5058023;28;20572;-85
2021/09/02 04:43:05;;;;;;;13.60;5.40;;;;;;;;;;5066842;28;20170;-83
2021/09/02 04:45:32;;;;;;;15.38;5.13;;;;;;;;;;5058410;28;20044;-84
2021/09/02 04:47:58;;;;;;;18.52;4.95;;;;;;;;;;5060784;28;20076;-84
2021/09/02 04:50:24;;;;;;;15.55;4.85;;;;;;;;;;5069236;28;20040;-83
2021/09/02 04:52:51;;;;;;;11.70;4.38;;;;;;;;;;5055265;28;20103;-84
2021/09/02 04:55:17;;;;;;;12.90;5.07;;;;;;;;;;5057108;28;20442;-81
2021/09/02 04:57:44;;;;;;;13.20;5.00;;;;;;;;;;5055713;28;20065;-81
2021/09/02 05:00:10;;;;;;;11.30;4.13;;;;;;;;;;5060324;28;20491;-81
2021/09/02 05:02:37;;;;;;;12.18;4.82;;;;;;;;;;5063130;28;20449;-80
2021/09/02 05:05:03;;;;;;;10.57;4.18;;;;;;;;;;5061042;28;20074;-83
2021/09/02 05:07:32;;;;;;;13.93;5.18;;;;;;;;;;5065377;28;20495;-83
2021/09/02 05:09:59;;;;;;;15.13;5.65;;;;;;;;;;5060730;28;20048;-76
2021/09/02 05:12:25;;;;;;;15.38;5.63;;;;;;;;;;5063412;28;20047;-74
2021/09/02 05:14:51;;;;;;;11.80;4.43;;;;;;;;;;5067769;28;20083;-73
2021/09/02 05:17:18;;;;;;;10.55;4.80;;;;;;;;;;5058814;28;20052;-74
2021/09/02 05:19:44;;;;;;;9.80;4.78;;;;;;;;;;5065565;28;20498;-74
2021/09/02 05:22:10;;;;;;;13.70;5.28;;;;;;;;;;5066115;28;20075;-74
2021/09/02 05:24:37;;;;;;;14.15;5.55;;;;;;;;;;5065834;28;20558;-75
2021/09/02 05:27:03;;;;;;;13.18;5.22;;;;;;;;;;5065409;28;20076;-73
2021/09/02 05:29:30;;;;;;;16.42;5.13;;;;;;;;;;5066182;28;20454;-68
2021/09/02 05:31:56;;;;;;;16.42;6.30;;;;;;;;;;5066847;28;20033;-74
2021/09/02 05:34:22;;;;;;;12.98;6.80;;;;;;;;;;5054485;28;20075;-76
2021/09/02 05:36:49;;;;;;;13.27;6.93;;;;;;;;;;5066665;28;20498;-75
2021/09/02 05:39:15;;;;;;;13.57;6.50;;;;;;;;;;5064796;28;20402;-72
2021/09/02 05:41:41;;;;;;;14.82;6.22;;;;;;;;;;5065369;28;20049;-72
2021/09/02 05:44:11;;;;;;;16.15;6.93;;;;;;;;;;5066928;28;20852;-73
2021/09/02 05:46:39;;;;;;;12.88;6.32;;;;;;;;;;5067515;28;20119;-73
2021/09/02 05:49:05;;;;;;;11.45;6.47;;;;;;;;;;5065068;28;20048;-73
2021/09/02 05:51:31;;;;;;;19.08;6.68;;;;;;;;;;5062018;28;20091;-73
2021/09/02 05:53:58;;;;;;;12.65;6.60;;;;;;;;;;5065300;28;20048;-75
2021/09/02 05:56:24;;;;;;;13.18;5.82;;;;;;;;;;5066078;28;20037;-74
2021/09/02 05:58:50;;;;;;;11.45;5.55;;;;;;;;;;5065812;28;20076;-72
2021/09/02 06:01:17;;;;;;;16.63;6.18;;;;;;;;;;5061822;28;20040;-70
2021/09/02 06:03:44;;;;;;;15.75;5.47;;;;;;;;;;5064579;28;20052;-74
2021/09/02 06:06:11;;;;;;;10.63;5.90;;;;;;;;;;5063692;28;20123;-75
2021/09/02 06:08:37;;;;;;;10.35;5.40;;;;;;;;;;5068053;28;20059;-73
2021/09/02 06:11:05;;;;;;;10.43;5.80;;;;;;;;;;5067956;28;20437;-74
2021/09/02 06:13:32;;;;;;;9.82;6.13;;;;;;;;;;5073391;28;20091;-76
2021/09/02 06:15:58;;;;;;;12.80;7.03;;;;;;;;;;5063634;28;20044;-70
2021/09/02 06:18:24;;;;;;;11.55;6.40;;;;;;;;;;5061425;28;20768;-69
2021/09/02 06:20:51;;;;;;;11.20;6.20;;;;;;;;;;5064271;28;20110;-71
2021/09/02 06:23:17;;;;;;;8.93;5.43;;;;;;;;;;5068829;28;20450;-75
2021/09/02 06:25:43;;;;;;;11.85;4.93;;;;;;;;;;5066361;28;20049;-69
2021/09/02 06:28:11;;;;;;;12.93;5.10;;;;;;;;;;5069317;28;20080;-70
2021/09/02 06:30:37;;;;;;;11.88;4.70;;;;;;;;;;5065371;28;20044;-70
2021/09/02 06:33:04;;;;;;;8.93;4.05;;;;;;;;;;5065532;28;20116;-74
2021/09/02 06:35:30;;;;;;;9.60;3.83;;;;;;;;;;5069753;28;20509;-70
2021/09/02 06:37:56;;;;;;;7.18;3.47;;;;;;;;;;5066609;28;20568;-75
2021/09/02 06:40:23;;;;;;;6.30;3.17;;;;;;;;;;5068099;28;20049;-72
2021/09/02 06:42:50;;;;;;;9.25;2.50;;;;;;;;;;5066280;28;20075;-71
2021/09/02 06:45:17;;;;;;;7.68;3.65;;;;;;;;;;5064741;28;20037;-73
2021/09/02 06:47:44;;;;;;;10.05;3.60;;;;;;;;;;5067464;28;20127;-71
2021/09/02 06:50:11;;;;;;;10.05;3.33;;;;;;;;;;5056287;28;20572;-70
2021/09/02 06:52:38;;;;;;;9.60;4.03;;;;;;;;;;5054603;28;20053;-75
2021/09/02 06:55:04;;;;;;;8.38;3.30;;;;;;;;;;5059552;28;20052;-74
2021/09/02 06:57:31;;;;;;;8.85;3.38;;;;;;;;;;5069750;28;20076;-72
2021/09/02 06:59:57;;;;;;;8.65;3.58;;;;;;;;;;5072932;28;20037;-73
2021/09/02 07:02:24;;;;;;;8.45;3.03;;;;;;;;;;5072953;28;20051;-75
2021/09/02 07:04:50;;;;;;;10.45;3.63;;;;;;;;;;5070908;28;20072;-73
2021/09/02 07:07:16;;;;;;;10.88;3.35;;;;;;;;;;5058873;28;20048;-76
2021/09/02 07:09:42;;;;;;;7.00;2.78;;;;;;;;;;5069894;28;20053;-74
2021/09/02 07:12:09;;;;;;;8.00;3.28;;;;;;;;;;5064429;28;20064;-70
2021/09/02 07:14:35;;;;;;;7.72;3.05;;;;;;;;;;5059187;28;20048;-72
2021/09/02 07:17:02;;;;;;;7.75;2.88;;;;;;;;;;5056412;28;20446;-71
2021/09/02 07:19:28;;;;;;;6.88;2.97;;;;;;;;;;5056727;28;20073;-77
2021/09/02 07:21:55;;;;;;;8.45;3.03;;;;;;;;;;5065895;28;20055;-71
2021/09/02 07:24:21;;;;;;;6.85;2.67;;;;;;;;;;5069345;28;20044;-73
2021/09/02 07:26:47;;;;;;;8.32;2.92;;;;;;;;;;5065809;28;20060;-70
2021/09/02 07:29:14;;;;;;;6.05;3.00;;;;;;;;;;5058186;28;20040;-66
2021/09/02 07:31:40;;;;;;;5.47;2.75;;;;;;;;;;5054043;28;20098;-75
2021/09/02 07:34:07;;;;;;;10.20;3.75;;;;;;;;;;5058743;28;20487;-77
2021/09/02 07:36:33;;;;;;;8.23;3.65;;;;;;;;;;5065569;28;20049;-75
2021/09/02 07:39:00;;;;;;;6.15;2.78;;;;;;;;;;5065491;28;20045;-77
2021/09/02 07:41:26;;;;;;;9.18;3.20;;;;;;;;;;5058893;28;20095;-80
2021/09/02 07:43:53;;;;;;;9.20;3.40;;;;;;;;;;5055085;28;20072;-78
2021/09/02 07:46:19;;;;;;;6.65;3.05;;;;;;;;;;5057881;28;20045;-77
2021/09/02 07:48:46;;;;;;;8.02;3.13;;;;;;;;;;5066776;28;20144;-77
2021/09/02 07:51:13;;;;;;;11.75;3.92;;;;;;;;;;5063044;28;20040;-78
2021/09/02 07:53:39;;;;;;;5.40;2.63;;;;;;;;;;5059204;28;20502;-78
2021/09/02 07:56:06;;;;;;;5.78;2.55;;;;;;;;;;5056802;28;20103;-69
2021/09/02 07:58:32;;;;;;;5.50;2.88;;;;;;;;;;5056348;28;20048;-77
2021/09/02 08:00:59;;;;;;;5.18;2.50;;;;;;;;;;5058293;28;20052;-80
2021/09/02 08:03:25;;;;;;;8.13;3.03;;;;;;;;;;5058761;28;20439;-82
2021/09/02 08:05:52;;;;;;;13.20;2.55;;;;;;;;;;5058341;28;20033;-79
2021/09/02 08:08:19;;;;;;;9.52;3.55;;;;;;;;;;5058128;28;20045;-79
2021/09/02 08:10:46;;;;;;;5.15;2.45;;;;;;;;;;5054641;28;20079;-70
2021/09/02 08:13:12;;;;;;;8.52;3.30;;;;;;;;;;5058106;28;20127;-79
2021/09/02 08:15:39;;;;;;;8.70;3.20;;;;;;;;;;5066293;28;20052;-78
2021/09/02 08:18:06;;;;;;;5.00;2.30;;;;;;;;;;5063570;28;20080;-75
2021/09/02 08:20:32;;;;;;;5.60;2.80;;;;;;;;;;5058010;28;20076;-78
2021/09/02 08:22:59;;;;;;;5.00;2.67;;;;;;;;;;5055079;28;20198;-65
2021/09/02 08:25:26;;;;;;;6.22;2.67;;;;;;;;;;5056353;28;20490;-77
2021/09/02 08:27:52;;;;;;;6.55;2.63;;;;;;;;;;5067912;28;20097;-79
2021/09/02 08:30:20;;;;;;;7.05;3.53;;;;;;;;;;5061022;28;20045;-76
2021/09/02 08:32:48;;;;;;;6.38;2.67;;;;;;;;;;5058028;28;20423;-74
2021/09/02 08:35:20;;;;;;;6.93;3.00;;;;;;;;;;5057130;28;20410;-67
2021/09/02 08:37:47;;;;;;;6.13;2.70;;;;;;;;;;5054153;28;20068;-74
2021/09/02 08:40:17;;;;;;;6.97;3.10;;;;;;;;;;5057479;28;20044;-77
2021/09/02 08:42:43;;;;;;;9.32;3.42;;;;;;;;;;5058054;28;20045;-79
2021/09/02 08:45:10;;;;;;;6.35;3.03;;;;;;;;;;5058025;28;20056;-72
2021/09/02 08:47:37;;;;;;;7.18;3.25;;;;;;;;;;5057629;28;20053;-78
2021/09/02 08:50:04;;;;;;;7.85;3.35;;;;;;;;;;5054867;28;20517;-77
2021/09/02 08:52:30;;;;;;;7.78;3.35;;;;;;;;;;5055359;28;20519;-78
2021/09/02 08:54:58;;;;;;;6.70;3.05;;;;;;;;;;5067936;28;20048;-84
2021/09/02 08:57:24;;;;;;;5.50;2.78;;;;;;;;;;5065325;28;20036;-67
2021/09/02 08:59:51;;;;;;;5.20;2.70;;;;;;;;;;5065146;28;20468;-75
2021/09/02 09:02:24;;;;;;;9.85;3.55;;;;;;;;;;5056882;28;20448;-70
2021/09/02 09:05:03;;;;;;;6.05;3.53;;;;;;;;;;5053798;28;20045;-77
2021/09/02 09:07:30;;;;;;;6.30;3.22;;;;;;;;;;5055049;28;20084;-82
2021/09/02 09:09:57;;;;;;;6.53;2.88;;;;;;;;;;5056953;28;20053;-70
2021/09/02 09:12:31;;;;;;;10.45;3.88;;;;;;;;;;5057381;28;20124;-79
2021/09/02 09:14:58;;;;;;;8.25;3.38;;;;;;;;;;5057239;28;20503;-72
2021/09/02 09:17:25;;;;;;;9.05;3.80;;;;;;;;;;5058343;28;20076;-81
2021/09/02 09:19:54;;;;;;;7.72;3.58;;;;;;;;;;5053789;28;20128;-66
2021/09/02 09:22:21;;;;;;;9.38;3.47;;;;;;;;;;5056154;28;20045;-79
2021/09/02 09:24:48;;;;;;;7.03;3.85;;;;;;;;;;5058062;28;20124;-79
2021/09/02 09:27:16;;;;;;;9.25;3.38;;;;;;;;;;5057467;28;20457;-77
2021/09/02 09:29:42;;;;;;;8.02;3.65;;;;;;;;;;5057534;28;20158;-71
2021/09/02 09:32:13;;;;;;;7.05;3.60;;;;;;;;;;5054646;28;20052;-76
2021/09/02 09:34:49;;;;;;;6.22;3.78;;;;;;;;;;5069456;28;20076;-71
2021/09/02 09:37:16;;;;;;;7.55;3.58;;;;;;;;;;5068551;28;20431;-72
2021/09/02 09:39:44;;;;;;;6.80;3.00;;;;;;;;;;5057864;28;20068;-76
2021/09/02 09:42:10;;;;;;;6.13;3.15;;;;;;;;;;5057293;28;20037;-68
2021/09/02 09:44:39;;;;;;;5.53;3.15;;;;;;;;;;5057291;28;20053;-76
2021/09/02 09:47:05;;;;;;;7.88;3.30;;;;;;;;;;5054997;28;20045;-75
2021/09/02 09:49:44;;;;;;;5.70;3.22;;;;;;;;;;5054801;28;20048;-69
2021/09/02 09:52:17;;;;;;;7.32;3.95;;;;;;;;;;5057014;28;20590;-78
2021/09/02 09:54:43;;;;;;;7.65;2.50;;;;;;;;;;5057132;28;20059;-78
2021/09/02 09:57:10;;;;;;;8.82;3.70;;;;;;;;;;5057379;28;20048;-78
2021/09/02 09:59:37;;;;;;;5.25;3.17;;;;;;;;;;5057315;28;20079;-78
2021/09/02 10:02:04;;;;;;;11.65;4.53;;;;;;;;;;5054430;28;20181;-76
2021/09/02 10:04:33;;;;;;;7.18;3.30;;;;;;;;;;5054784;28;20095;-77
2021/09/02 10:06:59;;;;;;;6.28;3.20;;;;;;;;;;5056807;28;20507;-75
2021/09/02 10:09:26;;;;;;;6.03;2.40;;;;;;;;;;5054037;28;20403;-76
2021/09/02 10:11:52;;;;;;;5.63;2.90;;;;;;;;;;5057039;28;20052;-76
2021/09/02 10:14:19;;;;;;;3.42;1.98;;;;;;;;;;5057151;28;20069;-68
2021/09/02 10:16:46;;;;;;;5.22;2.42;;;;;;;;;;5051298;28;20052;-75
2021/09/02 10:19:12;;;;;;;3.83;2.25;;;;;;;;;;5056550;28;20041;-76
2021/09/02 10:21:39;;;;;;;4.22;2.30;;;;;;;;;;5057087;28;20212;-67
2021/09/02 10:24:24;;;;;;;3.92;2.10;;;;;;;;;;5057134;28;20048;-76
2021/09/02 10:26:50;;;;;;;6.65;2.47;;;;;;;;;;5055959;28;20048;-76
2021/09/02 10:29:43;;;;;;;4.10;2.13;;;;;;;;;;5067224;28;20060;-80
2021/09/02 10:32:26;;;;;;;3.88;2.05;;;;;;;;;;5063879;28;20072;-69
2021/09/02 10:34:53;;;;;;;5.32;1.83;;;;;;;;;;5063931;28;20045;-79
2021/09/02 10:37:35;;;;;;;4.25;2.28;;;;;;;;;;5069807;28;20161;-78
2021/09/02 10:40:04;;;;;;;2.88;1.88;;;;;;;;;;5071868;28;20072;-67
2021/09/02 10:42:49;;;;;;;3.50;2.03;;;;;;;;;;5079120;28;20040;-80
2021/09/02 10:45:30;;;;;;;3.58;1.98;;;;;;;;;;5069449;28;20495;-72
2021/09/02 10:48:00;;;;;;;6.20;2.45;;;;;;;;;;5067376;28;20051;-77
2021/09/02 10:50:28;;;;;;;4.40;2.30;;;;;;;;;;5069789;28;20179;-75
2021/09/02 10:53:07;;;;;;;4.55;2.05;;;;;;;;;;5066734;28;20049;-71
2021/09/02 10:55:39;;;;;;;2.75;1.70;;;;;;;;;;5057898;28;20081;-77
2021/09/02 10:58:06;;;;;;;4.15;2.25;;;;;;;;;;5061354;28;20072;-77
2021/09/02 11:00:35;;;;;;;3.88;2.08;;;;;;;;;;5059196;28;20513;-70
2021/09/02 11:03:12;;;;;;;3.60;1.60;;;;;;;;;;5064784;28;20065;-75
2021/09/02 11:05:38;;;;;;;3.15;1.67;;;;;;;;;;5068601;28;20045;-73
2021/09/02 11:08:05;;;;;;;4.70;2.00;;;;;;;;;;5069598;28;20123;-76
2021/09/02 11:10:31;;;;;;;4.35;2.28;;;;;;;;;;5058719;28;20055;-67
2021/09/02 11:12:59;;;;;;;2.97;1.77;;;;;;;;;;5068327;28;20094;-75
2021/09/02 11:15:26;;;;;;;4.03;2.10;;;;;;;;;;5065481;28;20068;-72
2021/09/02 11:17:54;;;;;;;4.18;1.60;;;;;;;;;;5063620;28;20048;-77
2021/09/02 11:20:22;;;;;;;4.03;1.90;;;;;;;;;;5066215;28;20049;-70
2021/09/02 11:22:49;;;;;;;4.63;1.80;;;;;;;;;;5053449;28;20080;-70
2021/09/02 11:25:15;;;;;;;3.08;1.50;;;;;;;;;;5063676;28;20040;-75
2021/09/02 11:27:42;;;;;;;4.63;2.03;;;;;;;;;;5064092;28;20418;-74
2021/09/02 11:30:17;;;;;;;3.65;2.10;;;;;;;;;;5064311;28;20080;-77
2021/09/02 11:32:45;;;;;;;2.55;1.50;;;;;;;;;;5065986;28;20415;-68
2021/09/02 11:35:12;;;;;;;2.72;1.63;;;;;;;;;;5060456;28;20517;-67
2021/09/02 11:37:42;;;;;;;3.05;1.60;;;;;;;;;;5064907;28;20133;-76
2021/09/02 11:40:10;;;;;;;4.20;1.75;;;;;;;;;;5059100;28;20044;-81
2021/09/02 11:42:36;;;;;;;7.72;2.10;;;;;;;;;;5066147;28;20041;-78
2021/09/02 11:45:03;;;;;;;2.72;1.75;;;;;;;;;;5063599;28;20120;-76
2021/09/02 11:47:33;;;;;;;3.28;1.85;;;;;;;;;;5059852;28;20071;-68
2021/09/02 11:50:00;;;;;;;3.28;1.80;;;;;;;;;;5065830;28;20071;-76
2021/09/02 11:52:37;;;;;;;3.03;1.98;;;;;;;;;;5066992;28;20132;-69
2021/09/02 11:55:03;;;;;;;2.92;1.77;;;;;;;;;;5066563;28;20075;-74
2021/09/02 11:57:30;;;;;;;2.40;1.60;;;;;;;;;;5063782;28;20044;-72
2021/09/02 11:59:56;;;;;;;3.65;1.95;;;;;;;;;;5064681;28;20052;-72
2021/09/02 12:02:22;;;;;;;4.75;1.98;;;;;;;;;;5069209;28;20114;-67
2021/09/02 12:04:52;;;;;;;4.47;1.67;;;;;;;;;;5063146;28;20041;-81
2021/09/02 12:07:18;;;;;;;6.93;1.95;;;;;;;;;;5069253;28;20044;-75
2021/09/02 12:09:50;;;;;;;3.50;1.55;;;;;;;;;;5066707;28;20418;-79
2021/09/02 12:12:32;;;;;;;3.13;1.80;;;;;;;;;;5063084;28;20037;-65
2021/09/02 12:14:59;;;;;;;2.63;1.65;;;;;;;;;;5066145;28;20053;-78
2021/09/02 12:17:38;;;;;;;3.58;1.77;;;;;;;;;;5067694;28;20403;-77
2021/09/02 12:20:05;;;;;;;3.95;1.63;;;;;;;;;;5065720;28;20125;-79
2021/09/02 12:22:36;;;;;;;2.85;1.52;;;;;;;;;;5069570;28;20043;-78
2021/09/02 12:25:13;;;;;;;2.70;1.63;;;;;;;;;;5065932;28;20060;-76
2021/09/02 12:27:45;;;;;;;6.32;1.50;;;;;;;;;;5062846;28;20101;-76
2021/09/02 12:30:11;;;;;;;2.65;1.40;;;;;;;;;;5063123;28;20041;-71
2021/09/02 12:32:38;;;;;;;2.85;1.63;;;;;;;;;;5066486;28;20056;-76
2021/09/02 12:35:18;;;;;;;4.95;1.50;;;;;;;;;;5065998;28;20431;-74
2021/09/02 12:37:44;;;;;;;3.70;1.65;;;;;;;;;;5064093;28;20483;-73
2021/09/02 12:40:12;;;;;;;2.58;1.40;;;;;;;;;;5066519;28;20186;-73
2021/09/02 12:42:38;;;;;;;3.42;1.65;;;;;;;;;;5062936;28;20458;-67
2021/09/02 12:45:19;;;;;;;3.13;1.38;;;;;;;;;;5062951;28;20119;-68
2021/09/02 12:47:47;;;;;;;4.50;1.75;;;;;;;;;;5065206;28;20124;-68
2021/09/02 12:50:18;;;;;;;5.43;1.85;;;;;;;;;;5066657;28;20049;-82
2021/09/02 12:52:44;;;;;;;2.50;1.60;;;;;;;;;;5062318;28;20041;-76
2021/09/02 12:55:11;;;;;;;4.03;1.73;;;;;;;;;;5065389;28;20072;-78
2021/09/02 12:57:46;;;;;;;6.28;1.95;;;;;;;;;;5062705;28;20071;-78
2021/09/02 13:00:18;;;;;;;7.85;2.00;;;;;;;;;;5062500;28;20120;-79
2021/09/02 13:02:45;;;;;;;5.20;1.70;;;;;;;;;;5064436;28;20045;-78
2021/09/02 13:05:12;;;;;;;3.88;1.70;;;;;;;;;;5066532;28;20048;-78
2021/09/02 13:07:54;;;;;;;3.00;1.33;;;;;;;;;;5063651;28;20057;-80
2021/09/02 13:10:22;;;;;;;5.45;1.42;;;;;;;;;;5067864;28;20051;-77
2021/09/02 13:12:49;;;;;;;3.15;1.65;;;;;;;;;;5063786;28;20113;-75
2021/09/02 13:15:16;;;;;;;3.67;1.75;;;;;;;;;;5062374;28;20403;-76
2021/09/02 13:17:43;;;;;;;2.78;1.58;;;;;;;;;;5065235;28;20052;-77
2021/09/02 13:20:10;;;;;;;5.07;1.67;;;;;;;;;;5064307;28;20820;-75
2021/09/02 13:22:37;;;;;;;3.25;1.95;;;;;;;;;;5068270;28;20044;-75
2021/09/02 13:25:04;;;;;;;4.18;1.73;;;;;;;;;;5064739;28;20069;-65
2021/09/02 13:27:31;;;;;;;3.40;1.70;;;;;;;;;;5062182;28;20553;-77
2021/09/02 13:29:57;;;;;;;2.75;1.30;;;;;;;;;;5063052;28;20159;-65
2021/09/02 13:32:24;;;;;;;4.43;1.95;;;;;;;;;;5066979;28;20083;-76
2021/09/02 13:34:50;;;;;;;3.15;1.50;;;;;;;;;;5062815;28;20086;-65
2021/09/02 13:37:17;;;;;;;2.33;1.52;;;;;;;;;;5066321;28;20040;-78
2021/09/02 13:39:43;;;;;;;2.45;1.40;;;;;;;;;;5061836;28;20098;-77
2021/09/02 13:42:10;;;;;;;4.43;1.52;;;;;;;;;;5059536;28;20073;-76
2021/09/02 13:44:37;;;;;;;2.20;1.40;;;;;;;;;;5056308;28;20091;-76
2021/09/02 13:47:03;;;;;;;3.75;1.75;;;;;;;;;;5065440;28;20055;-78
2021/09/02 13:49:29;;;;;;;3.83;1.42;;;;;;;;;;5064187;28;20079;-69
2021/09/02 13:51:56;;;;;;;3.53;1.50;;;;;;;;;;5066792;28;20045;-67
2021/09/02 13:54:23;;;;;;;4.45;2.20;;;;;;;;;;5061965;28;20123;-67
2021/09/02 13:56:50;;;;;;;2.67;1.50;;;;;;;;;;5064667;28;20096;-74
2021/09/02 13:59:17;;;;;;;2.58;1.35;;;;;;;;;;5064946;28;20037;-74
2021/09/02 14:01:43;;;;;;;4.30;1.75;;;;;;;;;;5066078;28;20043;-74
2021/09/02 14:04:09;;;;;;;3.55;2.00;;;;;;;;;;5064835;28;20076;-77
2021/09/02 14:06:36;;;;;;;2.88;1.50;;;;;;;;;;5061379;28;20128;-74
2021/09/02 14:09:03;;;;;;;3.47;1.48;;;;;;;;;;5063953;28;20051;-69
2021/09/02 14:11:29;;;;;;;2.70;1.40;;;;;;;;;;5054728;28;20068;-77
2021/09/02 14:13:56;;;;;;;4.30;1.80;;;;;;;;;;5057942;28;20044;-76
2021/09/02 14:16:22;;;;;;;3.10;1.90;;;;;;;;;;5064801;28;20049;-77
2021/09/02 14:18:49;;;;;;;4.53;1.83;;;;;;;;;;5058656;28;20088;-77
2021/09/02 14:21:15;;;;;;;3.25;1.83;;;;;;;;;;5057377;28;20112;-72
2021/09/02 14:23:42;;;;;;;5.80;1.75;;;;;;;;;;5064289;28;20507;-77
2021/09/02 14:26:08;;;;;;;5.55;1.92;;;;;;;;;;5062902;28;20688;-79
2021/09/02 14:28:34;;;;;;;2.58;1.60;;;;;;;;;;5064028;28;20127;-69
2021/09/02 14:31:01;;;;;;;2.65;1.70;;;;;;;;;;5066172;28;20060;-78
2021/09/02 14:33:28;;;;;;;2.90;1.60;;;;;;;;;;5063927;28;20044;-72
2021/09/02 14:35:54;;;;;;;2.50;1.30;;;;;;;;;;5064642;28;20554;-77
2021/09/02 14:38:21;;;;;;;3.10;1.55;;;;;;;;;;5068602;28;20040;-74
2021/09/02 14:40:47;;;;;;;5.20;1.88;;;;;;;;;;5065533;28;20115;-78